Main page
Satellite images 15-day forecastsClimateMarine weather Cyclones Lightning AirportsFAQ Newsletter About
Weather : Europe Africa North America South America Asia Australia-Oceania Others
Languages Contact

London-Gatwick, England

latitude: 51-09N, longitude: 000-11W, elevation: 62 m


METAR: EGKK 260750Z 21004KT 170V240 9999 OVC026 13/09 Q1022
TAF: EGKK 260457Z 2606/2712 22007KT 9999 SCT035 PROB30 TEMPO 2700/2708 7000 BKN014

Time: 08:28 (08:28 UTC)

Current weather observation

The report was made 38 minutes ago, at 07:50 UTC
Wind 4 kt from the South/Southwest, varying between South and West/Southwest
Temperature 13°C
Humidity 77%
Pressure 1022 hPa
Visibility 10 km or more
Overcast at a height of 2600 ft

Change units

Forecast

The report was made 3 hours and 31 minutes ago, at 04:57 UTC
Forecast valid from 26 at 06 UTC to 27 at 12 UTC
Wind 7 kt from the Southwest
Visibility 10 km or more
Scattered clouds at a height of 3500 ft
Probability 30% :
Temporary
from 27 at 00 UTC to 27 at 08 UTC
Visibility: 7000 m
Broken clouds at a height of 1400 ft
The information on this site is subject to a disclaimer
Weather : Europe Africa North America South America Asia Australia-Oceania Others
Satellite images 15-day forecastsClimateMarine weather Cyclones Lightning AirportsFAQ Languages Contact Newsletter About